createdAt,value
2023-02-10T00:01:37.930Z,0.10
2023-02-10T00:04:06.598Z,0.10
2023-02-10T00:06:34.580Z,0.07
2023-02-10T00:09:04.113Z,0.07
2023-02-10T00:11:50.598Z,0.06
2023-02-10T00:14:20.332Z,0.09
2023-02-10T00:16:52.190Z,0.07
2023-02-10T00:19:22.248Z,0.07
2023-02-10T00:21:50.747Z,0.06
2023-02-10T00:24:19.619Z,0.04
2023-02-10T00:26:47.679Z,0.03
2023-02-10T00:29:16.028Z,0.04
2023-02-10T00:31:44.402Z,0.03
2023-02-10T00:34:17.257Z,0.02
2023-02-10T00:36:46.669Z,0.04
2023-02-10T00:39:16.489Z,0.01
2023-02-10T00:41:44.243Z,-0.01
2023-02-10T00:44:12.673Z,0.04
2023-02-10T00:46:40.261Z,0.03
2023-02-10T00:49:08.253Z,0.04
2023-02-10T00:51:36.487Z,0.01
2023-02-10T00:54:04.483Z,-0.04
2023-02-10T00:56:32.008Z,-0.03
2023-02-10T00:58:59.834Z,-0.02
2023-02-10T01:01:27.372Z,0.02
2023-02-10T01:03:55.304Z,0.02
2023-02-10T01:06:23.387Z,0.01
2023-02-10T01:08:51.420Z,0.01
2023-02-10T01:11:19.426Z,-0.02
2023-02-10T01:13:47.954Z,-0.03
2023-02-10T01:16:17.884Z,-0.06
2023-02-10T01:18:46.271Z,-0.07
2023-02-10T01:21:20.129Z,-0.08
2023-02-10T01:23:48.739Z,-0.08
2023-02-10T01:26:17.216Z,-0.05
2023-02-10T01:28:45.412Z,0.00
2023-02-10T01:31:18.210Z,0.01
2023-02-10T01:33:47.607Z,-0.02
2023-02-10T01:36:18.882Z,0.00
2023-02-10T01:38:47.173Z,-0.04
2023-02-10T01:41:19.645Z,-0.07
2023-02-10T01:44:08.173Z,-0.11
2023-02-10T01:46:36.969Z,-0.12
2023-02-10T01:49:15.840Z,-0.15
2023-02-10T01:51:52.019Z,-0.18
2023-02-10T01:54:41.815Z,-0.20
2023-02-10T01:57:09.322Z,-0.22
2023-02-10T01:59:40.424Z,-0.25
2023-02-10T02:02:09.855Z,-0.24
2023-02-10T02:04:47.700Z,-0.25
2023-02-10T02:07:16.085Z,-0.29
2023-02-10T02:09:44.191Z,-0.31
2023-02-10T02:12:30.278Z,-0.33
2023-02-10T02:15:15.795Z,-0.36
2023-02-10T02:18:20.599Z,-0.38
2023-02-10T02:21:43.463Z,-0.34
2023-02-10T02:24:39.517Z,-0.32
2023-02-10T02:27:47.004Z,-0.30
2023-02-10T02:30:52.457Z,-0.30
2023-02-10T02:33:34.239Z,-0.33
2023-02-10T02:36:14.091Z,-0.33
2023-02-10T02:38:43.629Z,-0.33
2023-02-10T02:41:11.734Z,-0.33
2023-02-10T02:43:42.130Z,-0.35
2023-02-10T02:46:41.337Z,-0.36
2023-02-10T02:49:27.486Z,-0.35
2023-02-10T02:52:05.182Z,-0.34
2023-02-10T02:54:56.526Z,-0.34
2023-02-10T02:58:05.165Z,-0.34
2023-02-10T03:00:36.061Z,-0.33
2023-02-10T03:03:04.239Z,-0.29
2023-02-10T03:05:33.801Z,-0.27
2023-02-10T03:08:01.508Z,-0.26
2023-02-10T03:10:29.468Z,-0.26
2023-02-10T03:12:56.976Z,-0.31
2023-02-10T03:15:24.968Z,-0.32
2023-02-10T03:17:52.773Z,-0.33
2023-02-10T03:20:20.684Z,-0.35
2023-02-10T03:22:48.250Z,-0.40
2023-02-10T03:25:16.384Z,-0.40
2023-02-10T03:27:43.892Z,-0.43
2023-02-10T03:30:11.936Z,-0.48
2023-02-10T03:32:39.429Z,-0.47
2023-02-10T03:35:07.638Z,-0.47
2023-02-10T03:37:35.194Z,-0.50
2023-02-10T03:40:03.187Z,-0.54
2023-02-10T03:42:30.686Z,-0.52
2023-02-10T03:44:58.534Z,-0.50
2023-02-10T03:47:26.065Z,-0.48
2023-02-10T03:49:53.813Z,-0.52
2023-02-10T03:52:21.291Z,-0.55
2023-02-10T03:54:49.200Z,-0.59
2023-02-10T03:57:16.742Z,-0.61
2023-02-10T03:59:44.562Z,-0.62
2023-02-10T04:02:12.149Z,-0.62
2023-02-10T04:04:40.010Z,-0.61
2023-02-10T04:07:07.540Z,-0.62
2023-02-10T04:09:35.336Z,-0.67
2023-02-10T04:12:02.910Z,-0.68
2023-02-10T04:14:30.836Z,-0.72
2023-02-10T04:16:58.378Z,-0.78
2023-02-10T04:19:26.290Z,-0.84
2023-02-10T04:21:53.822Z,-0.90
2023-02-10T04:24:21.696Z,-0.92
2023-02-10T04:26:49.197Z,-0.93
2023-02-10T04:29:16.954Z,-0.98
2023-02-10T04:31:44.657Z,-1.03
2023-02-10T04:34:12.569Z,-1.10
2023-02-10T04:36:40.477Z,-1.14
2023-02-10T04:39:08.384Z,-1.21
2023-02-10T04:41:35.967Z,-1.25
2023-02-10T04:44:04.207Z,-1.27
2023-02-10T04:46:31.740Z,-1.29
2023-02-10T04:48:59.575Z,-1.30
2023-02-10T04:51:27.239Z,-1.29
2023-02-10T04:53:55.109Z,-1.26
2023-02-10T04:56:22.656Z,-1.21
2023-02-10T04:58:50.700Z,-1.19
2023-02-10T05:01:18.239Z,-1.19
2023-02-10T05:03:46.090Z,-1.23
2023-02-10T05:06:15.975Z,-1.25
2023-02-10T05:08:44.642Z,-1.20
2023-02-10T05:11:14.500Z,-1.05
2023-02-10T05:13:43.004Z,-0.91
2023-02-10T05:16:12.660Z,-0.95
2023-02-10T05:18:40.930Z,-1.04
2023-02-10T05:21:10.798Z,-1.14
2023-02-10T05:23:41.034Z,-1.17
2023-02-10T05:26:08.987Z,-1.22
2023-02-10T05:28:36.858Z,-1.26
2023-02-10T05:31:09.391Z,-1.25
2023-02-10T05:33:37.571Z,-1.26
2023-02-10T05:36:06.209Z,-1.29
2023-02-10T05:38:34.400Z,-1.30
2023-02-10T05:41:02.648Z,-1.33
2023-02-10T05:43:30.604Z,-1.34
2023-02-10T05:45:58.224Z,-1.37
2023-02-10T05:48:26.249Z,-1.40
2023-02-10T05:50:53.837Z,-1.40
2023-02-10T05:53:21.701Z,-1.41
2023-02-10T05:55:49.475Z,-1.41
2023-02-10T05:58:17.445Z,-1.37
2023-02-10T06:00:44.977Z,-1.36
2023-02-10T06:03:12.829Z,-1.30
2023-02-10T06:05:41.082Z,-1.22
2023-02-10T06:08:08.874Z,-1.14
2023-02-10T06:10:36.505Z,-1.07
2023-02-10T06:13:04.391Z,-1.04
2023-02-10T06:15:32.049Z,-0.98
2023-02-10T06:17:59.912Z,-0.94
2023-02-10T06:20:27.658Z,-0.92
2023-02-10T06:22:55.594Z,-0.93
2023-02-10T06:25:23.195Z,-0.89
2023-02-10T06:27:51.128Z,-0.87
2023-02-10T06:30:18.740Z,-0.74
2023-02-10T06:32:46.604Z,-0.74
2023-02-10T06:35:14.100Z,-0.76
2023-02-10T06:37:41.949Z,-0.80
2023-02-10T06:40:10.712Z,-0.82
2023-02-10T06:42:38.820Z,-0.84
2023-02-10T06:45:07.362Z,-0.74
2023-02-10T06:47:35.978Z,-0.63
2023-02-10T06:50:04.895Z,-0.50
2023-02-10T06:52:32.807Z,-0.43
2023-02-10T06:55:00.334Z,-0.34
2023-02-10T06:57:28.274Z,-0.32
2023-02-10T06:59:55.871Z,-0.27
2023-02-10T07:02:23.908Z,-0.22
2023-02-10T07:04:51.732Z,-0.15
2023-02-10T07:07:20.216Z,-0.04
2023-02-10T07:09:47.929Z,0.12
2023-02-10T07:12:15.710Z,0.30
2023-02-10T07:14:44.678Z,0.42
2023-02-10T07:17:12.574Z,0.53
2023-02-10T07:19:40.073Z,0.61
2023-02-10T07:22:07.896Z,0.67
2023-02-10T07:24:35.947Z,0.90
2023-02-10T07:27:04.882Z,1.01
2023-02-10T07:29:32.995Z,1.01
2023-02-10T07:32:01.089Z,0.96
2023-02-10T07:34:31.532Z,0.90
2023-02-10T07:36:59.848Z,0.85
2023-02-10T07:39:28.059Z,0.83
2023-02-10T07:41:56.349Z,0.83
2023-02-10T07:44:32.821Z,0.85
2023-02-10T07:47:00.791Z,0.92
2023-02-10T07:49:29.877Z,0.93
2023-02-10T07:51:57.868Z,0.93
2023-02-10T07:54:25.617Z,0.92
2023-02-10T07:56:53.772Z,0.96
2023-02-10T07:59:21.221Z,1.00
2023-02-10T08:01:49.216Z,1.01
2023-02-10T08:04:16.912Z,1.04
2023-02-10T08:06:44.975Z,1.05
2023-02-10T08:09:13.134Z,1.07
2023-02-10T08:11:43.551Z,1.12
2023-02-10T08:14:11.008Z,1.11
2023-02-10T08:16:38.932Z,1.17
2023-02-10T08:19:06.809Z,1.20
2023-02-10T08:21:34.781Z,1.26
2023-02-10T08:24:02.452Z,1.27
2023-02-10T08:26:30.573Z,1.29
2023-02-10T08:29:00.511Z,1.32
2023-02-10T08:31:29.329Z,1.34
2023-02-10T08:33:57.048Z,1.38
2023-02-10T08:36:25.161Z,1.44
2023-02-10T08:38:52.913Z,1.51
2023-02-10T08:41:21.134Z,1.55
2023-02-10T08:43:49.782Z,1.59
2023-02-10T08:46:17.791Z,1.60
2023-02-10T08:48:45.382Z,1.66
2023-02-10T08:51:16.026Z,1.70
2023-02-10T08:53:44.349Z,1.76
2023-02-10T08:56:18.560Z,1.77
2023-02-10T08:58:47.788Z,1.85
2023-02-10T09:01:25.000Z,1.83
2023-02-10T09:03:54.710Z,1.85
2023-02-10T09:06:31.462Z,1.93
2023-02-10T09:09:00.089Z,2.01
2023-02-10T09:11:28.612Z,2.07
2023-02-10T09:13:57.572Z,2.13
2023-02-10T09:16:27.115Z,2.22
2023-02-10T09:18:55.196Z,2.31
2023-02-10T09:21:23.596Z,2.34
2023-02-10T09:23:51.583Z,2.38
2023-02-10T09:26:19.731Z,2.45
2023-02-10T09:28:47.403Z,2.50
2023-02-10T09:31:19.366Z,2.52
2023-02-10T09:33:47.010Z,2.55
2023-02-10T09:36:19.334Z,2.57
2023-02-10T09:38:50.353Z,2.57
2023-02-10T09:41:36.517Z,2.56
2023-02-10T09:44:23.602Z,2.61
2023-02-10T09:47:38.260Z,2.68
2023-02-10T09:50:47.537Z,2.78
2023-02-10T09:53:22.837Z,2.76
2023-02-10T09:56:03.617Z,2.83
2023-02-10T09:58:45.692Z,2.91
2023-02-10T10:01:33.624Z,2.94
2023-02-10T10:04:11.222Z,3.06
2023-02-10T10:06:47.692Z,3.09
2023-02-10T10:09:34.712Z,3.19
2023-02-10T10:12:02.535Z,3.21
2023-02-10T10:14:41.676Z,3.28
2023-02-10T10:18:02.920Z,3.32
2023-02-10T10:20:50.085Z,3.33
2023-02-10T10:23:20.221Z,3.35
2023-02-10T10:26:02.665Z,3.48
2023-02-10T10:29:07.631Z,3.55
2023-02-10T10:31:41.185Z,3.63
2023-02-10T10:34:08.639Z,3.68
2023-02-10T10:36:39.712Z,3.68
2023-02-10T10:39:40.462Z,3.60
2023-02-10T10:42:43.168Z,3.53
2023-02-10T10:45:45.770Z,3.61
2023-02-10T10:48:15.906Z,3.69
2023-02-10T10:50:43.392Z,3.83
2023-02-10T10:53:31.133Z,3.87
2023-02-10T10:56:01.137Z,4.00
2023-02-10T10:58:41.049Z,4.07
2023-02-10T11:01:08.677Z,4.19
2023-02-10T11:03:36.521Z,4.28
2023-02-10T11:06:19.026Z,4.32
2023-02-10T11:09:07.184Z,4.37
2023-02-10T11:11:43.462Z,4.36
2023-02-10T11:14:24.665Z,4.44
2023-02-10T11:16:58.600Z,4.59
2023-02-10T11:19:37.688Z,4.68
2023-02-10T11:22:20.578Z,4.77
2023-02-10T11:25:02.216Z,4.74
2023-02-10T11:27:29.971Z,4.81
2023-02-10T11:30:02.968Z,4.98
2023-02-10T11:32:35.637Z,5.16
2023-02-10T11:35:09.953Z,5.34
2023-02-10T11:37:40.220Z,5.51
2023-02-10T11:40:29.697Z,5.72
2023-02-10T11:43:00.785Z,5.85
2023-02-10T11:45:32.125Z,5.98
2023-02-10T11:48:17.852Z,6.12
2023-02-10T11:50:47.066Z,6.16
2023-02-10T11:53:28.405Z,6.13
2023-02-10T11:56:19.047Z,6.12
2023-02-10T11:59:04.691Z,6.09
2023-02-10T12:01:41.960Z,6.09
2023-02-10T12:04:43.005Z,5.94
2023-02-10T12:07:41.115Z,5.87
2023-02-10T12:10:18.902Z,5.89
2023-02-10T12:13:22.108Z,6.18
2023-02-10T12:16:11.714Z,6.50
2023-02-10T12:19:15.167Z,6.77
2023-02-10T12:22:13.097Z,6.97
2023-02-10T12:25:38.958Z,7.31
2023-02-10T12:28:45.753Z,7.62
2023-02-10T12:31:40.300Z,7.92
2023-02-10T12:34:33.687Z,8.12
2023-02-10T12:37:53.569Z,8.25
2023-02-10T12:40:54.297Z,8.37
2023-02-10T12:43:35.893Z,8.52
2023-02-10T12:46:14.846Z,8.77
2023-02-10T12:48:58.267Z,8.70
2023-02-10T12:52:02.676Z,8.61
2023-02-10T12:55:15.398Z,8.82
2023-02-10T12:58:03.966Z,9.17
2023-02-10T13:00:47.414Z,9.39
2023-02-10T13:03:35.876Z,9.54
2023-02-10T13:06:21.669Z,9.69
2023-02-10T13:09:33.821Z,9.88
2023-02-10T13:12:04.598Z,10.10
2023-02-10T13:14:34.993Z,10.14
2023-02-10T13:17:03.690Z,10.36
2023-02-10T13:19:54.983Z,10.71
2023-02-10T13:22:33.093Z,10.99
2023-02-10T13:25:27.400Z,11.36
2023-02-10T13:28:16.760Z,11.56
2023-02-10T13:31:22.535Z,11.80
2023-02-10T13:34:18.644Z,11.96
2023-02-10T13:37:17.496Z,12.25
2023-02-10T13:40:21.657Z,12.50
2023-02-10T13:43:03.061Z,12.58
2023-02-10T13:45:38.216Z,12.49
2023-02-10T13:48:30.839Z,12.37
2023-02-10T13:51:02.875Z,12.37
2023-02-10T13:53:36.211Z,12.08
2023-02-10T13:56:19.611Z,12.01
2023-02-10T13:59:26.044Z,11.62
2023-02-10T14:02:10.194Z,11.25
2023-02-10T14:04:48.245Z,11.05
2023-02-10T14:07:37.268Z,11.28
2023-02-10T14:10:24.657Z,11.60
2023-02-10T14:13:00.205Z,11.53
2023-02-10T14:15:39.333Z,11.66
2023-02-10T14:18:33.973Z,11.88
2023-02-10T14:21:08.017Z,12.12
2023-02-10T14:23:41.218Z,12.18
2023-02-10T14:26:20.046Z,12.16
2023-02-10T14:28:55.008Z,12.30
2023-02-10T14:31:40.208Z,12.33
2023-02-10T14:34:31.684Z,12.52
2023-02-10T14:37:22.723Z,12.80
2023-02-10T14:40:00.934Z,12.99
2023-02-10T14:42:31.999Z,13.20
2023-02-10T14:45:02.796Z,13.47
2023-02-10T14:47:38.367Z,13.82
2023-02-10T14:50:08.250Z,14.07
2023-02-10T14:52:47.009Z,14.18
2023-02-10T14:55:28.585Z,14.11
2023-02-10T14:58:12.640Z,14.11
2023-02-10T15:00:54.412Z,13.98
2023-02-10T15:03:23.835Z,13.62
2023-02-10T15:05:56.467Z,13.14
2023-02-10T15:08:34.523Z,12.26
2023-02-10T15:11:06.501Z,11.43
2023-02-10T15:13:44.149Z,10.63
2023-02-10T15:16:15.832Z,9.92
2023-02-10T15:18:48.976Z,9.18
2023-02-10T15:21:51.924Z,8.47
2023-02-10T15:24:32.239Z,7.90
2023-02-10T15:27:29.247Z,7.42
2023-02-10T15:30:09.087Z,6.99
2023-02-10T15:32:38.591Z,6.71
2023-02-10T15:35:08.723Z,6.44
2023-02-10T15:37:39.028Z,6.21
2023-02-10T15:40:27.205Z,5.93
2023-02-10T15:43:01.030Z,5.69
2023-02-10T15:45:28.683Z,5.52
2023-02-10T15:48:07.992Z,5.38
2023-02-10T15:50:38.554Z,5.23
2023-02-10T15:53:11.961Z,5.12
2023-02-10T15:55:42.411Z,5.00
2023-02-10T15:58:13.151Z,4.90
2023-02-10T16:00:43.123Z,4.84
2023-02-10T16:03:11.627Z,4.75
2023-02-10T16:05:40.358Z,4.66
2023-02-10T16:08:26.348Z,4.61
2023-02-10T16:10:54.109Z,4.50
2023-02-10T16:13:22.188Z,4.43
2023-02-10T16:15:52.427Z,4.34
2023-02-10T16:18:25.554Z,4.26
2023-02-10T16:20:53.288Z,4.17
2023-02-10T16:23:21.610Z,4.10
2023-02-10T16:25:50.427Z,4.05
2023-02-10T16:28:20.478Z,4.01
2023-02-10T16:30:48.884Z,3.98
2023-02-10T16:33:16.914Z,3.91
2023-02-10T16:35:44.569Z,3.82
2023-02-10T16:38:17.603Z,3.75
2023-02-10T16:40:45.744Z,3.68
2023-02-10T16:43:13.696Z,3.66
2023-02-10T16:45:41.314Z,3.62
2023-02-10T16:48:13.742Z,3.56
2023-02-10T16:50:43.362Z,3.51
2023-02-10T16:53:12.377Z,3.42
2023-02-10T16:55:41.430Z,3.35
2023-02-10T16:58:16.633Z,3.28
2023-02-10T17:00:45.130Z,3.25
2023-02-10T17:03:13.416Z,3.17
2023-02-10T17:05:41.432Z,3.12
2023-02-10T17:08:10.919Z,3.06
2023-02-10T17:10:39.132Z,3.03
2023-02-10T17:13:08.433Z,2.96
2023-02-10T17:15:36.352Z,2.92
2023-02-10T17:18:05.520Z,2.86
2023-02-10T17:20:35.411Z,2.83
2023-02-10T17:23:03.868Z,2.80
2023-02-10T17:25:32.133Z,2.80
2023-02-10T17:28:00.067Z,2.78
2023-02-10T17:30:28.472Z,2.74
2023-02-10T17:32:56.628Z,2.69
2023-02-10T17:35:24.997Z,2.68
2023-02-10T17:38:11.632Z,2.64
2023-02-10T17:40:39.298Z,2.60
2023-02-10T17:43:07.292Z,2.57
2023-02-10T17:45:34.817Z,2.53
2023-02-10T17:48:02.801Z,2.51
2023-02-10T17:50:30.260Z,2.48
2023-02-10T17:52:58.174Z,2.48
2023-02-10T17:55:26.001Z,2.43
2023-02-10T17:57:53.950Z,2.39
2023-02-10T18:00:21.803Z,2.37
2023-02-10T18:02:49.850Z,2.36
2023-02-10T18:05:17.890Z,2.34
2023-02-10T18:07:46.705Z,2.30
2023-02-10T18:10:15.151Z,2.29
2023-02-10T18:12:43.046Z,2.29
2023-02-10T18:15:11.981Z,2.24
2023-02-10T18:17:39.939Z,2.21
2023-02-10T18:20:08.901Z,2.20
2023-02-10T18:22:37.096Z,2.16
2023-02-10T18:25:05.937Z,2.10
2023-02-10T18:27:34.532Z,2.08
2023-02-10T18:30:04.002Z,2.06
2023-02-10T18:32:32.226Z,2.03
2023-02-10T18:34:59.908Z,2.04
2023-02-10T18:37:28.080Z,2.02
2023-02-10T18:39:56.819Z,2.02
2023-02-10T18:42:25.070Z,2.01
2023-02-10T18:44:52.917Z,1.99
2023-02-10T18:47:22.905Z,1.95
2023-02-10T18:49:51.817Z,1.97
2023-02-10T18:52:20.237Z,1.97
2023-02-10T18:54:48.360Z,1.97
2023-02-10T18:57:16.234Z,2.00
2023-02-10T18:59:43.863Z,1.99
2023-02-10T19:02:14.092Z,1.98
2023-02-10T19:04:41.700Z,1.98
2023-02-10T19:07:10.218Z,1.97
2023-02-10T19:09:39.326Z,1.95
2023-02-10T19:12:08.984Z,1.95
2023-02-10T19:14:36.511Z,1.93
2023-02-10T19:17:04.444Z,1.90
2023-02-10T19:19:31.950Z,1.86
2023-02-10T19:21:59.895Z,1.85
2023-02-10T19:24:27.478Z,1.84
2023-02-10T19:26:55.567Z,1.87
2023-02-10T19:29:23.487Z,1.87
2023-02-10T19:31:51.533Z,1.85
2023-02-10T19:34:20.252Z,1.85
2023-02-10T19:36:48.402Z,1.85
2023-02-10T19:39:16.677Z,1.81
2023-02-10T19:41:45.834Z,1.80
2023-02-10T19:44:20.425Z,1.79
2023-02-10T19:46:48.902Z,1.76
2023-02-10T19:49:17.649Z,1.74
2023-02-10T19:51:46.409Z,1.76
2023-02-10T19:54:14.863Z,1.71
2023-02-10T19:56:42.781Z,1.68
2023-02-10T19:59:11.973Z,1.67
2023-02-10T20:01:40.381Z,1.65
2023-02-10T20:04:08.899Z,1.65
2023-02-10T20:06:42.092Z,1.66
2023-02-10T20:09:11.453Z,1.66
2023-02-10T20:11:48.255Z,1.64
2023-02-10T20:14:23.663Z,1.65
2023-02-10T20:16:58.552Z,1.66
2023-02-10T20:19:32.441Z,1.67
2023-02-10T20:22:02.891Z,1.78
2023-02-10T20:24:31.362Z,1.86
2023-02-10T20:26:59.277Z,1.95
2023-02-10T20:29:26.980Z,2.01
2023-02-10T20:31:54.993Z,2.06
2023-02-10T20:34:22.899Z,2.08
2023-02-10T20:36:52.483Z,2.11
2023-02-10T20:39:20.436Z,2.06
2023-02-10T20:41:48.308Z,2.08
2023-02-10T20:44:16.817Z,2.02
2023-02-10T20:46:45.735Z,2.07
2023-02-10T20:49:13.674Z,2.11
2023-02-10T20:51:41.623Z,2.15
2023-02-10T20:54:09.169Z,2.19
2023-02-10T20:56:37.010Z,2.23
2023-02-10T20:59:07.096Z,2.27
2023-02-10T21:01:35.148Z,2.28
2023-02-10T21:04:03.186Z,2.23
2023-02-10T21:06:31.202Z,2.20
2023-02-10T21:09:02.997Z,2.15
2023-02-10T21:11:32.629Z,2.15
2023-02-10T21:14:00.112Z,2.13
2023-02-10T21:16:29.380Z,2.10
2023-02-10T21:18:59.865Z,2.07
2023-02-10T21:21:30.949Z,2.11
2023-02-10T21:24:11.312Z,2.08
2023-02-10T21:26:51.511Z,2.01
2023-02-10T21:29:31.955Z,1.97
2023-02-10T21:32:55.220Z,1.98
2023-02-10T21:35:24.663Z,1.96
2023-02-10T21:37:52.412Z,1.91
2023-02-10T21:40:21.041Z,1.89
2023-02-10T21:42:48.656Z,1.89
2023-02-10T21:45:17.058Z,1.90
2023-02-10T21:47:44.577Z,1.86
2023-02-10T21:50:12.468Z,1.85
2023-02-10T21:52:39.973Z,1.89
2023-02-10T21:55:07.889Z,1.83
2023-02-10T21:57:35.401Z,1.81
2023-02-10T22:00:04.970Z,1.74
2023-02-10T22:02:34.898Z,1.68
2023-02-10T22:05:04.458Z,1.63
2023-02-10T22:07:32.033Z,1.59
2023-02-10T22:10:00.075Z,1.57
2023-02-10T22:12:27.608Z,1.56
2023-02-10T22:14:55.405Z,1.54
2023-02-10T22:17:22.992Z,1.52
2023-02-10T22:19:50.816Z,1.49
2023-02-10T22:22:18.323Z,1.42
2023-02-10T22:24:48.834Z,1.35
2023-02-10T22:27:17.474Z,1.34
2023-02-10T22:29:45.436Z,1.34
2023-02-10T22:32:13.411Z,1.32
2023-02-10T22:34:45.828Z,1.28
2023-02-10T22:37:13.543Z,1.27
2023-02-10T22:39:42.715Z,1.29
2023-02-10T22:42:10.706Z,1.33
2023-02-10T22:44:38.996Z,1.35
2023-02-10T22:47:06.483Z,1.28
2023-02-10T22:49:34.412Z,1.21
2023-02-10T22:52:01.959Z,1.18
2023-02-10T22:54:30.096Z,1.14
2023-02-10T22:56:57.882Z,1.12
2023-02-10T22:59:27.694Z,1.10
2023-02-10T23:01:58.793Z,1.11
2023-02-10T23:04:27.789Z,1.10
2023-02-10T23:06:55.910Z,1.08
2023-02-10T23:09:24.330Z,1.07
2023-02-10T23:11:52.634Z,1.09
2023-02-10T23:14:22.130Z,1.07
2023-02-10T23:16:55.996Z,1.05
2023-02-10T23:19:27.598Z,1.03
2023-02-10T23:21:57.446Z,1.01
2023-02-10T23:24:25.329Z,1.00
2023-02-10T23:26:52.969Z,0.97
2023-02-10T23:29:20.919Z,0.94
2023-02-10T23:31:48.915Z,0.92
2023-02-10T23:34:17.393Z,0.86
2023-02-10T23:36:46.781Z,0.85
2023-02-10T23:39:14.741Z,0.82
2023-02-10T23:41:42.281Z,0.79
2023-02-10T23:44:10.937Z,0.72
2023-02-10T23:46:40.689Z,0.74
2023-02-10T23:49:08.619Z,0.75
2023-02-10T23:51:36.089Z,0.72
2023-02-10T23:54:04.032Z,0.74
2023-02-10T23:56:31.687Z,0.80
2023-02-10T23:58:59.747Z,0.80
